Time;durP1;ratioP1;P1;durP2;ratioP2;P2;SDS_P1;SDS_P2;PMS_P1;PMS_P2;Temp;Humidity;BMP_temperature;BMP_pressure;BME280_temperature;BME280_humidity;BME280_pressure;Samples;Min_cycle;Max_cycle;Signal;HPM_P1;HPM_P2
2024/01/30 00:00:16;;;;;;;9.45;7.18;;;;;;;7.34;100.00;102559.25;5019898;28;20067;-64
2024/01/30 00:02:43;;;;;;;10.43;8.18;;;;;;;7.33;100.00;102555.75;5022124;28;20108;-64
2024/01/30 00:05:08;;;;;;;10.82;8.20;;;;;;;7.30;100.00;102553.22;5016934;28;20040;-64
2024/01/30 00:07:33;;;;;;;10.85;8.23;;;;;;;7.30;100.00;102561.13;5018757;28;20474;-63
2024/01/30 00:09:59;;;;;;;9.70;8.13;;;;;;;7.28;100.00;102560.34;5014105;28;20033;-64
2024/01/30 00:12:24;;;;;;;12.02;7.97;;;;;;;7.27;100.00;102553.31;5019123;28;20075;-63
2024/01/30 00:14:50;;;;;;;9.65;8.05;;;;;;;7.24;100.00;102553.41;5016097;28;20021;-64
2024/01/30 00:17:15;;;;;;;10.00;7.55;;;;;;;7.23;100.00;102552.56;5017561;28;20390;-62
2024/01/30 00:19:40;;;;;;;10.57;8.18;;;;;;;7.22;100.00;102555.25;5018499;28;20025;-62
2024/01/30 00:22:06;;;;;;;10.38;7.80;;;;;;;7.21;100.00;102546.47;5020693;28;20464;-62
2024/01/30 00:24:31;;;;;;;10.73;7.28;;;;;;;7.19;100.00;102550.97;5003837;28;20030;-62
2024/01/30 00:26:56;;;;;;;8.73;7.10;;;;;;;7.18;100.00;102549.22;5019390;28;20040;-62
2024/01/30 00:29:22;;;;;;;11.45;7.82;;;;;;;7.17;100.00;102547.47;5016894;28;20034;-62
2024/01/30 00:31:48;;;;;;;9.20;7.65;;;;;;;7.17;100.00;102544.84;5015255;28;20482;-62
2024/01/30 00:34:13;;;;;;;10.65;7.68;;;;;;;7.14;100.00;102541.44;5016726;28;20080;-62
2024/01/30 00:36:38;;;;;;;11.25;7.70;;;;;;;7.14;100.00;102542.31;5019003;28;20030;-61
2024/01/30 00:39:08;;;;;;;10.52;7.68;;;;;;;7.13;100.00;102543.25;5015280;28;20037;-61
2024/01/30 00:41:34;;;;;;;11.50;7.68;;;;;;;7.11;100.00;102541.56;5018530;28;20052;-61
2024/01/30 00:43:59;;;;;;;10.52;7.43;;;;;;;7.10;100.00;102539.84;5013415;28;21348;-62
2024/01/30 00:46:25;;;;;;;11.13;7.40;;;;;;;7.10;100.00;102534.56;5020899;28;20029;-61
2024/01/30 00:48:50;;;;;;;10.32;7.55;;;;;;;7.09;100.00;102541.59;5016081;28;20077;-61
2024/01/30 00:51:15;;;;;;;11.65;7.82;;;;;;;7.09;100.00;102538.97;5018684;28;20390;-61
2024/01/30 00:53:41;;;;;;;10.25;7.03;;;;;;;7.10;100.00;102534.56;5018020;28;20052;-61
2024/01/30 00:56:07;;;;;;;11.45;7.00;;;;;;;7.08;100.00;102531.09;5017660;28;20057;-61
2024/01/30 00:58:33;;;;;;;9.27;7.60;;;;;;;7.08;100.00;102531.97;5016110;28;20076;-62
2024/01/30 01:00:58;;;;;;;10.07;7.28;;;;;;;7.08;100.00;102531.09;5016053;28;20383;-62
2024/01/30 01:03:23;;;;;;;9.38;7.45;;;;;;;7.08;100.00;102529.31;5017888;28;20441;-62
2024/01/30 01:05:48;;;;;;;9.43;7.18;;;;;;;7.06;100.00;102528.53;5019265;28;20030;-62
2024/01/30 01:08:14;;;;;;;9.38;7.43;;;;;;;7.08;100.00;102531.09;5016985;28;20052;-62
2024/01/30 01:10:40;;;;;;;10.77;7.63;;;;;;;7.06;100.00;102532.91;5018773;28;20418;-62
2024/01/30 01:13:05;;;;;;;9.18;7.22;;;;;;;7.07;100.00;102530.22;5019561;28;20026;-62
2024/01/30 01:15:30;;;;;;;9.30;7.00;;;;;;;7.04;100.00;102528.56;5020358;28;20040;-62
2024/01/30 01:17:56;;;;;;;8.32;6.72;;;;;;;7.06;100.00;102522.34;5017007;28;20022;-62
2024/01/30 01:20:21;;;;;;;10.90;7.13;;;;;;;7.06;100.00;102523.25;5020888;28;20025;-62
2024/01/30 01:22:46;;;;;;;9.13;7.28;;;;;;;7.08;100.00;102524.03;5020854;28;20038;-62
2024/01/30 01:25:12;;;;;;;8.13;6.70;;;;;;;7.08;100.00;102523.16;5015750;28;20038;-64
2024/01/30 01:27:41;;;;;;;9.48;6.97;;;;;;;7.07;100.00;102517.03;5020971;28;20049;-64
2024/01/30 01:30:26;;;;;;;10.18;6.85;;;;;;;7.12;100.00;102525.66;5021584;28;20098;-64
2024/01/30 01:32:54;;;;;;;8.95;7.07;;;;;;;7.10;100.00;102524.84;5012253;28;20025;-64
2024/01/30 01:35:27;;;;;;;8.60;6.53;;;;;;;7.09;100.00;102514.31;5010100;28;20022;-63
2024/01/30 01:37:57;;;;;;;9.25;6.55;;;;;;;7.10;100.00;102516.06;5013594;28;20287;-64
2024/01/30 01:40:27;;;;;;;9.23;6.75;;;;;;;7.11;100.00;102513.38;5019741;28;20035;-64
2024/01/30 01:42:53;;;;;;;;;;;;;;;7.21;100.00;102516.53;5016666;28;20026;-64
2024/01/30 01:45:19;;;;;;;8.15;6.70;;;;;;;7.12;100.00;102517.72;5016134;28;20047;-64
2024/01/30 01:47:47;;;;;;;12.02;7.07;;;;;;;7.12;100.00;102512.44;5017377;28;20029;-64
2024/01/30 01:50:13;;;;;;;9.52;7.07;;;;;;;7.12;100.00;102508.94;5019957;28;20038;-65
2024/01/30 01:52:41;;;;;;;9.48;7.10;;;;;;;7.13;100.00;102506.25;5017624;28;20029;-63
2024/01/30 01:55:07;;;;;;;9.38;6.75;;;;;;;7.14;100.00;102492.09;5015134;28;20026;-63
2024/01/30 01:57:34;;;;;;;9.57;7.13;;;;;;;7.16;100.00;102500.84;5019365;28;20404;-63
2024/01/30 02:00:01;;;;;;;8.57;7.00;;;;;;;7.17;100.00;102496.44;5020914;28;20036;-63
2024/01/30 02:02:30;;;;;;;7.70;6.43;;;;;;;7.19;100.00;102495.47;5016558;28;20026;-63
2024/01/30 02:04:56;;;;;;;9.68;7.38;;;;;;;7.23;100.00;102494.41;5024153;28;20380;-63
2024/01/30 02:07:22;;;;;;;8.88;6.70;;;;;;;7.25;100.00;102485.59;5021709;28;20076;-63
2024/01/30 02:09:47;;;;;;;8.32;6.97;;;;;;;7.26;100.00;102492.56;5020952;28;20483;-63
2024/01/30 02:12:12;;;;;;;8.80;6.80;;;;;;;7.27;100.00;102489.03;5024073;28;20068;-63
2024/01/30 02:14:48;;;;;;;9.68;6.70;;;;;;;7.30;100.00;102491.56;5022606;28;20032;-63
2024/01/30 02:17:14;;;;;;;10.93;6.97;;;;;;;7.28;100.00;102496.03;5021742;28;20032;-64
2024/01/30 02:19:40;;;;;;;9.00;6.90;;;;;;;7.29;100.00;102498.59;5020271;28;20104;-63
2024/01/30 02:22:05;;;;;;;8.00;6.57;;;;;;;7.31;100.00;102488.00;5022372;28;20040;-63
2024/01/30 02:24:31;;;;;;;10.25;7.03;;;;;;;7.31;100.00;102496.81;5022839;28;20056;-63
2024/01/30 02:26:56;;;;;;;9.38;7.00;;;;;;;7.32;100.00;102493.22;5022311;28;20087;-63
2024/01/30 02:29:21;;;;;;;11.77;6.65;;;;;;;7.33;100.00;102496.75;5022864;28;20030;-63
2024/01/30 02:31:47;;;;;;;12.00;6.78;;;;;;;7.35;100.00;102494.91;5023230;28;20026;-64
2024/01/30 02:34:13;;;;;;;6.97;6.15;;;;;;;7.35;100.00;102492.25;5023868;28;20104;-63
2024/01/30 02:36:38;;;;;;;9.70;6.65;;;;;;;7.35;100.00;102489.63;5019086;28;20021;-63
2024/01/30 02:39:03;;;;;;;9.30;6.88;;;;;;;7.38;100.00;102484.22;5020832;28;20021;-63
2024/01/30 02:41:29;;;;;;;7.47;6.70;;;;;;;7.39;100.00;102486.81;5019988;28;20423;-63
2024/01/30 02:43:54;;;;;;;10.27;6.57;;;;;;;7.40;100.00;102491.16;5016239;28;20523;-63
2024/01/30 02:46:19;;;;;;;9.10;6.50;;;;;;;7.40;100.00;102485.03;5022327;28;20079;-63
2024/01/30 02:48:44;;;;;;;11.10;6.50;;;;;;;7.40;100.00;102479.72;5020986;28;20034;-63
2024/01/30 02:51:10;;;;;;;10.10;6.35;;;;;;;7.41;100.00;102487.59;5024102;28;20056;-63
2024/01/30 02:53:35;;;;;;;8.95;6.45;;;;;;;7.41;100.00;102487.59;5020186;28;20391;-63
2024/01/30 02:56:02;;;;;;;8.70;6.63;;;;;;;7.41;100.00;102482.31;5023431;28;20204;-63
2024/01/30 02:58:27;;;;;;;10.90;6.38;;;;;;;7.42;100.00;102477.88;5020084;28;20266;-63
2024/01/30 03:00:52;;;;;;;8.52;6.32;;;;;;;7.43;100.00;102476.09;5022112;28;20048;-63
2024/01/30 03:03:18;;;;;;;9.95;6.35;;;;;;;7.44;100.00;102477.84;5020861;28;20030;-63
2024/01/30 03:05:43;;;;;;;8.77;6.38;;;;;;;7.43;100.00;102470.81;5019341;28;20021;-64
2024/01/30 03:08:08;;;;;;;7.97;6.57;;;;;;;7.44;100.00;102473.41;5015963;28;20033;-64
2024/01/30 03:10:34;;;;;;;7.97;6.25;;;;;;;7.43;100.00;102470.81;5019432;28;20048;-64
2024/01/30 03:12:59;;;;;;;9.38;6.47;;;;;;;7.44;100.00;102459.31;5017029;28;20108;-64
2024/01/30 03:15:24;;;;;;;8.82;6.13;;;;;;;7.44;100.00;102456.69;5019889;28;20025;-63
2024/01/30 03:17:50;;;;;;;9.63;6.55;;;;;;;7.47;100.00;102446.84;5016934;28;20030;-63
2024/01/30 03:20:15;;;;;;;9.20;6.40;;;;;;;7.46;100.00;102455.72;5020315;28;20026;-63
2024/01/30 03:22:41;;;;;;;10.48;6.82;;;;;;;7.47;100.00;102452.13;5017689;28;20541;-63
2024/01/30 03:25:06;;;;;;;9.95;6.40;;;;;;;7.46;100.00;102454.84;5020378;28;20079;-62
2024/01/30 03:27:32;;;;;;;9.43;6.68;;;;;;;7.45;100.00;102456.63;5015897;28;20045;-63
2024/01/30 03:29:57;;;;;;;9.15;6.68;;;;;;;7.47;100.00;102461.88;5021611;28;20065;-63
2024/01/30 03:32:22;;;;;;;8.57;6.57;;;;;;;7.44;100.00;102449.59;5019342;28;20075;-63
2024/01/30 03:34:48;;;;;;;10.63;6.85;;;;;;;7.45;100.00;102450.50;5019660;28;20044;-63
2024/01/30 03:37:13;;;;;;;9.75;6.68;;;;;;;7.42;100.00;102448.81;5017397;28;20491;-63
2024/01/30 03:39:38;;;;;;;11.55;6.45;;;;;;;7.43;100.00;102452.31;5020790;28;20384;-63
2024/01/30 03:42:04;;;;;;;8.82;6.50;;;;;;;7.42;100.00;102451.44;5017519;28;20053;-64
2024/01/30 03:44:29;;;;;;;7.00;6.20;;;;;;;7.40;100.00;102454.16;5020105;28;20096;-64
2024/01/30 03:46:54;;;;;;;8.70;6.78;;;;;;;7.41;100.00;102455.00;5018777;28;20040;-64
2024/01/30 03:49:19;;;;;;;7.32;6.40;;;;;;;7.40;100.00;102458.59;5020155;28;20061;-64
2024/01/30 03:51:47;;;;;;;9.10;6.68;;;;;;;7.39;100.00;102455.09;5021417;28;20030;-64
2024/01/30 03:54:12;;;;;;;10.27;6.88;;;;;;;7.40;100.00;102461.22;5020431;28;20432;-64
2024/01/30 03:56:37;;;;;;;9.15;6.88;;;;;;;7.38;100.00;102458.63;5016907;28;20077;-62
2024/01/30 03:59:03;;;;;;;8.70;7.18;;;;;;;7.39;100.00;102467.41;5022064;28;20022;-62
2024/01/30 04:01:28;;;;;;;10.52;7.32;;;;;;;7.40;100.00;102458.59;5021964;28;20538;-62
2024/01/30 04:03:53;;;;;;;9.68;7.00;;;;;;;7.42;100.00;102467.31;5020067;28;20486;-62
2024/01/30 04:06:19;;;;;;;10.90;7.18;;;;;;;7.41;100.00;102469.09;5020199;28;20030;-62
2024/01/30 04:08:44;;;;;;;10.73;7.05;;;;;;;7.44;100.00;102456.69;5021967;28;20120;-62
2024/01/30 04:11:10;;;;;;;9.82;6.53;;;;;;;7.44;100.00;102462.81;5016296;28;20037;-62
2024/01/30 04:13:35;;;;;;;9.98;7.43;;;;;;;7.42;100.00;102456.75;5017751;28;20048;-62
2024/01/30 04:16:01;;;;;;;7.80;7.00;;;;;;;7.44;100.00;102456.69;5019657;28;20029;-62
2024/01/30 04:18:27;;;;;;;13.10;7.70;;;;;;;7.45;100.00;102450.50;5017046;28;20037;-62
2024/01/30 04:20:52;;;;;;;10.43;6.97;;;;;;;7.45;100.00;102453.13;5019264;28;20025;-62
2024/01/30 04:23:18;;;;;;;11.05;6.93;;;;;;;7.46;100.00;102453.06;5021602;28;20475;-62
2024/01/30 04:25:43;;;;;;;9.65;6.88;;;;;;;7.48;100.00;102453.03;5015188;28;20140;-62
2024/01/30 04:28:08;;;;;;;9.00;6.80;;;;;;;7.49;100.00;102447.66;5021524;28;20383;-62
2024/01/30 04:30:33;;;;;;;9.38;6.70;;;;;;;7.48;100.00;102443.28;5018379;28;20022;-62
2024/01/30 04:32:59;;;;;;;8.20;6.78;;;;;;;7.48;100.00;102445.94;5019143;28;20022;-62
2024/01/30 04:35:24;;;;;;;9.43;6.90;;;;;;;7.49;100.00;102429.13;5016734;28;20022;-62
2024/01/30 04:37:53;;;;;;;11.32;7.03;;;;;;;7.50;100.00;102430.03;5019612;28;20029;-62
2024/01/30 04:40:18;;;;;;;9.38;6.85;;;;;;;7.53;100.00;102424.63;5017159;28;20053;-62
2024/01/30 04:42:43;;;;;;;10.02;6.72;;;;;;;7.55;100.00;102425.41;5017826;28;20080;-62
2024/01/30 04:45:09;;;;;;;9.07;6.57;;;;;;;7.59;100.00;102430.53;5016129;28;20028;-61
2024/01/30 04:47:34;;;;;;;8.52;6.40;;;;;;;7.61;100.00;102414.63;5019119;28;20479;-62
2024/01/30 04:50:01;;;;;;;10.70;6.40;;;;;;;7.62;100.00;102408.38;5016798;28;20041;-62
2024/01/30 04:52:26;;;;;;;10.00;6.63;;;;;;;7.64;100.00;102411.81;5019774;28;20112;-61
2024/01/30 04:54:51;;;;;;;8.65;6.47;;;;;;;7.65;100.00;102415.34;5017163;28;20109;-61
2024/01/30 04:57:17;;;;;;;11.02;6.43;;;;;;;7.65;100.00;102416.19;5019237;28;20074;-61
2024/01/30 04:59:42;;;;;;;9.57;6.43;;;;;;;7.67;100.00;102424.09;5018499;28;20026;-61
2024/01/30 05:02:07;;;;;;;11.80;6.45;;;;;;;7.67;100.00;102417.00;5019272;28;20037;-61
2024/01/30 05:04:32;;;;;;;8.35;6.25;;;;;;;7.68;100.00;102415.22;5017121;28;20391;-62
2024/01/30 05:06:58;;;;;;;8.70;6.93;;;;;;;7.69;100.00;102415.16;5020264;28;20029;-61
2024/01/30 05:09:23;;;;;;;10.15;6.90;;;;;;;7.69;100.00;102423.09;5015189;28;20037;-62
2024/01/30 05:11:48;;;;;;;9.25;6.50;;;;;;;7.69;100.00;102432.81;5016299;28;20061;-62
2024/01/30 05:14:15;;;;;;;9.73;6.57;;;;;;;7.69;100.00;102427.53;5019995;28;20058;-61
2024/01/30 05:16:40;;;;;;;10.30;6.93;;;;;;;7.68;100.00;102426.66;5017693;28;20475;-62
2024/01/30 05:19:06;;;;;;;9.55;6.68;;;;;;;7.68;100.00;102421.38;5015952;28;20113;-62
2024/01/30 05:21:31;;;;;;;9.52;6.72;;;;;;;7.68;100.00;102418.72;5017741;28;20120;-62
2024/01/30 05:23:56;;;;;;;10.40;6.97;;;;;;;7.70;100.00;102421.31;5017172;28;20030;-62
2024/01/30 05:26:22;;;;;;;11.30;7.22;;;;;;;7.71;100.00;102420.38;5018701;28;20053;-62
2024/01/30 05:28:48;;;;;;;8.90;6.75;;;;;;;7.73;100.00;102418.56;5014844;28;20040;-62
2024/01/30 05:31:13;;;;;;;9.93;6.93;;;;;;;7.76;100.00;102421.06;5014554;28;20037;-62
2024/01/30 05:33:40;;;;;;;8.38;6.40;;;;;;;7.78;100.00;102417.44;5020017;28;20056;-62
2024/01/30 05:36:05;;;;;;;9.65;6.50;;;;;;;7.81;100.00;102423.53;5019689;28;20122;-62
2024/01/30 05:38:31;;;;;;;11.00;7.18;;;;;;;7.83;100.00;102419.91;5020886;28;20096;-62
2024/01/30 05:41:00;;;;;;;9.88;6.97;;;;;;;7.87;100.00;102415.34;5022036;28;20022;-62
2024/01/30 05:43:25;;;;;;;8.23;6.78;;;;;;;7.88;100.00;102417.94;5019616;28;20033;-62
2024/01/30 05:45:51;;;;;;;7.15;6.28;;;;;;;7.91;100.00;102417.81;5024342;28;20103;-62
2024/01/30 05:48:17;;;;;;;11.23;6.60;;;;;;;7.94;100.00;102424.75;5020503;28;20014;-62
2024/01/30 05:50:42;;;;;;;9.10;7.07;;;;;;;7.96;100.00;102410.56;5022739;28;20044;-62
2024/01/30 05:53:07;;;;;;;12.40;6.88;;;;;;;8.01;100.00;102415.69;5022094;28;20116;-62
2024/01/30 05:55:33;;;;;;;11.15;7.05;;;;;;;8.04;100.00;102426.09;5018815;28;20116;-62
2024/01/30 05:57:58;;;;;;;8.32;6.82;;;;;;;8.05;100.00;102411.97;5019655;28;20033;-62
2024/01/30 06:00:23;;;;;;;7.40;6.13;;;;;;;8.07;100.00;102428.63;5022647;28;20100;-62
2024/01/30 06:02:49;;;;;;;9.05;6.25;;;;;;;8.10;100.00;102422.38;5019165;28;20045;-62
2024/01/30 06:05:14;;;;;;;9.75;6.45;;;;;;;8.11;100.00;102422.31;5023975;28;20463;-62
2024/01/30 06:07:39;;;;;;;6.93;6.15;;;;;;;8.12;100.00;102415.22;5020211;28;20034;-62
2024/01/30 06:10:05;;;;;;;10.23;6.47;;;;;;;8.14;100.00;102419.53;5019934;28;20030;-62
2024/01/30 06:12:31;;;;;;;8.60;6.43;;;;;;;8.18;100.00;102419.38;5021952;28;20052;-62
2024/01/30 06:14:56;;;;;;;8.30;6.32;;;;;;;8.20;100.00;102421.06;5022932;28;20045;-62
2024/01/30 06:17:23;;;;;;;10.88;6.80;;;;;;;8.22;100.00;102421.00;5022947;28;20124;-62
2024/01/30 06:19:48;;;;;;;11.27;6.82;;;;;;;8.24;100.00;102421.78;5024699;28;20037;-62
2024/01/30 06:22:13;;;;;;;7.95;6.55;;;;;;;8.25;100.00;102427.03;5017567;28;20116;-62
2024/01/30 06:24:39;;;;;;;9.75;6.75;;;;;;;8.27;100.00;102432.25;5019405;28;20065;-62
2024/01/30 06:27:04;;;;;;;11.70;6.80;;;;;;;8.27;100.00;102432.25;5017031;28;20022;-62
2024/01/30 06:29:29;;;;;;;8.43;6.35;;;;;;;8.27;100.00;102430.47;5021771;28;20401;-62
2024/01/30 06:31:55;;;;;;;10.07;7.13;;;;;;;8.30;100.00;102429.50;5014457;28;20049;-62
2024/01/30 06:34:20;;;;;;;8.50;6.65;;;;;;;8.31;100.00;102434.72;5021472;28;20474;-63
2024/01/30 06:36:45;;;;;;;9.23;6.93;;;;;;;8.34;100.00;102439.00;5016279;28;20028;-62
2024/01/30 06:39:10;;;;;;;8.45;6.43;;;;;;;8.35;100.00;102438.09;5022693;28;20378;-62
2024/01/30 06:41:36;;;;;;;7.75;6.25;;;;;;;8.37;100.00;102440.69;5017528;28;20075;-64
2024/01/30 06:44:06;;;;;;;10.05;6.35;;;;;;;8.40;100.00;102446.72;5017346;28;20026;-65
2024/01/30 06:46:32;;;;;;;10.38;6.32;;;;;;;8.42;100.00;102439.56;5019501;28;20045;-64
2024/01/30 06:48:57;;;;;;;10.48;6.78;;;;;;;8.44;100.00;102442.16;5020036;28;20025;-64
2024/01/30 06:51:23;;;;;;;9.82;6.70;;;;;;;8.46;100.00;102435.91;5012813;28;20368;-63
2024/01/30 06:53:48;;;;;;;9.07;6.20;;;;;;;8.46;100.00;102437.66;5014824;28;20040;-65
2024/01/30 06:56:13;;;;;;;11.43;6.78;;;;;;;8.48;100.00;102447.28;5016647;28;20046;-64
2024/01/30 06:58:39;;;;;;;8.50;6.88;;;;;;;8.51;100.00;102462.19;5018285;28;20036;-61
2024/01/30 07:01:04;;;;;;;10.55;6.70;;;;;;;8.52;100.00;102470.03;5021025;28;20018;-62
2024/01/30 07:03:29;;;;;;;9.73;6.40;;;;;;;8.53;100.00;102473.56;5022785;28;20030;-61
2024/01/30 07:05:55;;;;;;;8.63;6.57;;;;;;;8.54;100.00;102474.44;5018227;28;20398;-61
2024/01/30 07:08:20;;;;;;;9.27;6.07;;;;;;;8.54;100.00;102480.56;5014636;28;20037;-62
2024/01/30 07:10:46;;;;;;;10.43;6.90;;;;;;;8.51;100.00;102486.03;5016177;28;20037;-62
2024/01/30 07:13:12;;;;;;;8.02;6.25;;;;;;;8.49;100.00;102488.75;5021968;28;20433;-62
2024/01/30 07:15:37;;;;;;;10.52;6.50;;;;;;;8.47;100.00;102479.97;5015861;28;20038;-61
2024/01/30 07:18:04;;;;;;;12.25;7.00;;;;;;;8.46;100.00;102491.50;5015143;28;20047;-62
2024/01/30 07:20:31;;;;;;;10.73;6.53;;;;;;;8.45;100.00;102487.13;5016735;28;20034;-62
2024/01/30 07:22:57;;;;;;;10.52;6.78;;;;;;;8.44;100.00;102490.72;5014056;28;20084;-61
2024/01/30 07:25:26;;;;;;;9.98;7.03;;;;;;;8.46;100.00;102495.91;5014936;28;20030;-61
2024/01/30 07:28:00;;;;;;;8.15;6.68;;;;;;;8.46;100.00;102498.56;5021036;28;20036;-64
2024/01/30 07:30:26;;;;;;;9.07;7.18;;;;;;;8.43;100.00;102498.72;5015591;28;20475;-62
2024/01/30 07:32:51;;;;;;;11.20;6.78;;;;;;;8.43;100.00;102494.28;5016040;28;20034;-62
2024/01/30 07:35:16;;;;;;;9.65;6.68;;;;;;;8.44;100.00;102505.72;5014245;28;20512;-62
2024/01/30 07:37:41;;;;;;;9.98;6.82;;;;;;;8.43;100.00;102501.38;5020228;28;20018;-61
2024/01/30 07:40:07;;;;;;;8.95;6.85;;;;;;;8.43;100.00;102506.66;5016552;28;20060;-62
2024/01/30 07:42:33;;;;;;;11.73;7.22;;;;;;;8.42;100.00;102508.41;5016708;28;20025;-61
2024/01/30 07:44:59;;;;;;;9.68;6.60;;;;;;;8.42;100.00;102503.09;5020480;28;20029;-62
2024/01/30 07:47:24;;;;;;;10.32;6.65;;;;;;;8.41;100.00;102504.03;5018794;28;20116;-62
2024/01/30 07:49:49;;;;;;;11.68;6.45;;;;;;;8.43;100.00;102509.31;5018629;28;20029;-63
2024/01/30 07:52:14;;;;;;;7.85;6.20;;;;;;;8.42;100.00;102512.84;5015146;28;20018;-62
2024/01/30 07:54:50;;;;;;;7.72;6.53;;;;;;;8.42;100.00;102510.19;5017441;28;20478;-61
2024/01/30 07:57:16;;;;;;;8.70;6.55;;;;;;;8.40;100.00;102518.19;5013888;28;20043;-60
2024/01/30 07:59:43;;;;;;;8.93;6.68;;;;;;;8.41;100.00;102519.94;5019518;28;20828;-60
2024/01/30 08:02:09;;;;;;;8.85;6.38;;;;;;;8.42;100.00;102529.56;5018603;28;20030;-60
2024/01/30 08:04:34;;;;;;;9.75;6.82;;;;;;;8.44;100.00;102526.91;5015213;28;20018;-60
2024/01/30 08:06:59;;;;;;;7.50;6.57;;;;;;;8.45;100.00;102529.50;5011138;28;20359;-60
2024/01/30 08:09:25;;;;;;;13.38;7.00;;;;;;;8.45;100.00;102534.78;5014970;28;20076;-61
2024/01/30 08:11:50;;;;;;;8.85;6.47;;;;;;;8.47;100.00;102527.63;5018519;28;20040;-60
2024/01/30 08:14:15;;;;;;;9.77;6.82;;;;;;;8.48;100.00;102534.66;5020829;28;20049;-61
2024/01/30 08:16:40;;;;;;;10.35;6.97;;;;;;;8.51;100.00;102531.03;5013927;28;20056;-59
2024/01/30 08:19:06;;;;;;;10.80;7.00;;;;;;;8.54;100.00;102530.91;5020613;28;20084;-61
2024/01/30 08:21:36;;;;;;;9.63;6.90;;;;;;;8.58;100.00;102534.31;5018135;28;20032;-60
2024/01/30 08:24:02;;;;;;;10.68;6.55;;;;;;;8.61;100.00;102535.03;5019881;28;20112;-60
2024/01/30 08:26:27;;;;;;;9.45;6.70;;;;;;;8.64;100.00;102532.25;5012903;28;20042;-60
2024/01/30 08:28:53;;;;;;;8.90;6.93;;;;;;;8.66;100.00;102535.69;5012583;28;20036;-61
2024/01/30 08:31:18;;;;;;;13.18;7.38;;;;;;;8.71;100.00;102538.16;5017951;28;20041;-62
2024/01/30 08:33:44;;;;;;;10.48;7.03;;;;;;;8.74;100.00;102532.72;5015875;28;20033;-62
2024/01/30 08:36:09;;;;;;;8.05;6.80;;;;;;;8.78;100.00;102531.69;5013386;28;20464;-61
2024/01/30 08:38:34;;;;;;;8.27;6.60;;;;;;;8.82;100.00;102537.72;5018421;28;20179;-60
2024/01/30 08:41:00;;;;;;;12.35;7.82;;;;;;;8.86;100.00;102531.38;5018368;28;20454;-61
2024/01/30 08:43:25;;;;;;;12.25;7.10;;;;;;;8.90;100.00;102530.28;5017938;28;20368;-61
2024/01/30 08:45:51;;;;;;;8.07;6.90;;;;;;;8.94;100.00;102529.22;5020003;28;20052;-60
2024/01/30 08:48:17;;;;;;;9.70;6.95;;;;;;;8.96;100.00;102529.16;5018811;28;20155;-61
2024/01/30 08:50:43;;;;;;;9.65;6.68;;;;;;;8.98;100.00;102530.84;5016378;28;20518;-62
2024/01/30 08:53:08;;;;;;;9.35;6.88;;;;;;;9.01;100.00;102527.16;5009056;28;20022;-61
2024/01/30 08:55:33;;;;;;;13.95;7.22;;;;;;;9.07;100.00;102526.91;5018274;28;20030;-61
2024/01/30 08:57:59;;;;;;;14.18;7.07;;;;;;;9.11;100.00;102527.63;5015536;28;20038;-62
2024/01/30 09:00:24;;;;;;;13.30;7.25;;;;;;;9.16;100.00;102528.28;5020737;28;20013;-61
2024/01/30 09:02:50;;;;;;;13.05;6.78;;;;;;;9.20;100.00;102532.56;5020235;28;20543;-61
2024/01/30 09:05:15;;;;;;;13.38;7.60;;;;;;;9.24;100.00;102532.38;5016246;28;20026;-61
2024/01/30 09:07:40;;;;;;;11.23;7.53;;;;;;;9.29;100.00;102533.94;5020828;28;20063;-61
2024/01/30 09:10:06;;;;;;;11.35;6.95;;;;;;;9.32;100.00;102533.81;5023015;28;20044;-60
2024/01/30 09:12:32;;;;;;;12.43;6.68;;;;;;;9.36;100.00;102530.94;5019897;28;20616;-61
2024/01/30 09:14:57;;;;;;;14.25;7.82;;;;;;;9.40;100.00;102529.88;5020593;28;20030;-61
2024/01/30 09:17:22;;;;;;;14.02;7.35;;;;;;;9.44;100.00;102535.91;5018856;28;20030;-62
2024/01/30 09:19:47;;;;;;;12.07;7.03;;;;;;;9.48;100.00;102542.81;5019759;28;20040;-61
2024/01/30 09:22:13;;;;;;;14.50;7.07;;;;;;;9.52;100.00;102544.38;5019737;28;20030;-62
2024/01/30 09:24:38;;;;;;;11.18;7.07;;;;;;;9.55;100.00;102544.25;5017885;28;20033;-62
2024/01/30 09:27:04;;;;;;;9.80;7.40;;;;;;;9.59;100.00;102543.19;5019973;28;20034;-62
2024/01/30 09:29:29;;;;;;;11.65;7.70;;;;;;;9.63;100.00;102551.88;5022844;28;20052;-62
2024/01/30 09:31:54;;;;;;;13.18;7.22;;;;;;;9.66;100.00;102551.72;5023546;28;20100;-62
2024/01/30 09:34:20;;;;;;;14.13;7.68;;;;;;;9.70;100.00;102553.31;5017417;28;20025;-62
2024/01/30 09:36:45;;;;;;;10.55;7.13;;;;;;;9.73;100.00;102550.50;5017042;28;21148;-61
2024/01/30 09:39:10;;;;;;;11.27;7.07;;;;;;;9.78;100.00;102556.47;5016273;28;20030;-63
2024/01/30 09:41:49;;;;;;;12.57;7.25;;;;;;;9.85;100.00;102566.81;5016023;28;20099;-63
2024/01/30 09:44:16;;;;;;;15.02;6.63;;;;;;;9.89;100.00;102566.59;5020588;28;20109;-63
2024/01/30 09:46:42;;;;;;;12.48;7.22;;;;;;;9.92;100.00;102574.41;5022317;28;20045;-63
2024/01/30 09:49:09;;;;;;;13.52;6.90;;;;;;;9.95;100.00;102584.03;5025142;28;20033;-62
2024/01/30 09:51:35;;;;;;;12.73;7.45;;;;;;;9.98;100.00;102576.78;5021003;28;20040;-63
2024/01/30 09:54:01;;;;;;;12.27;7.28;;;;;;;10.01;100.00;102573.13;5016774;28;20029;-63
2024/01/30 09:56:27;;;;;;;9.90;6.75;;;;;;;10.03;100.00;102576.56;5015842;28;20402;-63
2024/01/30 09:58:52;;;;;;;9.32;6.95;;;;;;;10.06;100.00;102573.78;5019342;28;20037;-63
2024/01/30 10:01:18;;;;;;;11.50;7.13;;;;;;;10.08;100.00;102571.06;5018084;28;20088;-63
2024/01/30 10:03:44;;;;;;;11.93;7.28;;;;;;;10.09;100.00;102570.09;5021230;28;20037;-63
2024/01/30 10:06:10;;;;;;;10.10;7.03;;;;;;;10.10;100.00;102572.69;5018373;28;20056;-63
2024/01/30 10:08:35;;;;;;;12.30;7.78;;;;;;;10.13;100.00;102572.56;5021382;28;20025;-62
2024/01/30 10:11:01;;;;;;;11.23;7.43;;;;;;;10.13;100.00;102574.34;5018170;28;20463;-63
2024/01/30 10:13:27;;;;;;;11.18;7.28;;;;;;;10.14;100.00;102574.28;5012124;28;20030;-63
2024/01/30 10:15:53;;;;;;;14.20;7.75;;;;;;;10.15;100.00;102577.78;5012778;28;20033;-63
2024/01/30 10:18:18;;;;;;;13.43;7.53;;;;;;;10.17;100.00;102583.88;5019147;28;20032;-62
2024/01/30 10:20:43;;;;;;;13.43;7.13;;;;;;;10.17;100.00;102587.41;5016765;28;20406;-63
2024/01/30 10:23:09;;;;;;;11.13;7.88;;;;;;;10.22;100.00;102586.31;5018499;28;20025;-63
2024/01/30 10:25:35;;;;;;;14.63;7.75;;;;;;;10.24;100.00;102587.09;5014972;28;20132;-63
2024/01/30 10:28:00;;;;;;;14.68;7.28;;;;;;;10.26;100.00;102590.53;5015665;28;20029;-63
2024/01/30 10:30:26;;;;;;;10.27;8.18;;;;;;;10.29;100.00;102595.72;5015772;28;20018;-64
2024/01/30 10:32:52;;;;;;;11.95;7.60;;;;;;;10.31;100.00;102599.19;5020026;28;20410;-64
2024/01/30 10:35:17;;;;;;;13.40;7.25;;;;;;;10.35;100.00;102609.59;5016882;28;20029;-63
2024/01/30 10:37:49;;;;;;;11.40;7.50;;;;;;;10.38;100.00;102599.78;5021990;28;20475;-64
2024/01/30 10:40:17;;;;;;;12.60;7.43;;;;;;;10.42;100.00;102593.38;5013577;28;20033;-63
2024/01/30 10:42:44;;;;;;;12.65;7.22;;;;;;;10.44;100.00;102596.81;5020899;28;20390;-63
2024/01/30 10:45:12;;;;;;;13.20;8.55;;;;;;;10.46;100.00;102602.91;5015658;28;20018;-64
2024/01/30 10:47:40;;;;;;;13.02;7.97;;;;;;;10.49;100.00;102600.09;5019367;28;20040;-63
2024/01/30 10:50:07;;;;;;;14.00;8.02;;;;;;;10.52;100.00;102600.84;5017059;28;20494;-63
2024/01/30 10:52:33;;;;;;;15.80;7.97;;;;;;;10.54;100.00;102604.28;5020018;28;20125;-62
2024/01/30 10:54:59;;;;;;;14.15;8.52;;;;;;;10.58;100.00;102591.72;5018191;28;20153;-63
2024/01/30 10:57:26;;;;;;;11.75;7.60;;;;;;;10.59;100.00;102603.19;5018202;28;20104;-63
2024/01/30 10:59:55;;;;;;;14.15;8.13;;;;;;;10.60;100.00;102602.25;5019501;28;20101;-63
2024/01/30 11:02:21;;;;;;;14.40;7.95;;;;;;;10.60;100.00;102603.13;5020303;28;20026;-63
2024/01/30 11:04:48;;;;;;;16.45;8.30;;;;;;;10.61;100.00;102603.97;5017297;28;21116;-63
2024/01/30 11:07:24;;;;;;;13.68;8.63;;;;;;;10.62;100.00;102597.72;5018639;28;20013;-63
2024/01/30 11:10:02;;;;;;;13.13;8.18;;;;;;;10.61;100.00;102610.16;5014726;28;20383;-63
2024/01/30 11:12:28;;;;;;;14.85;8.02;;;;;;;10.60;100.00;102612.91;5016953;28;20136;-63